LESOLXGB

Guest
Details From LESO - San Sebastian
To LXGB - Gibraltar
Flight Number -
Tags Generated
Created
Modified
Stats Distance 465 nm / 861 km
Max Altitude 0 ft / 0 m
Waypoints 4
Social Downloads 2
Likes 0
Share VATSIM

Download

Looking for another format? Having issues loading an existing format? Contact us
Advertisement - Login to hide

Notes

Generated

Route

LESO VTB14 BRIKE LXGB

ID Type Via Altitude Latitude Longitude Leg Dist Tot Dist Heading (true) Name
O LESO APT - 0 ft / 0 m 43.35035˚ -1.79740˚ - 0 nm - -
VTB14 FIX - 0 ft / 0 m 39.97888˚ -3.64447˚ 218 nm 218 nm 203° / 202° -
BRIKE FIX - 0 ft / 0 m 36.50478˚ -5.41645˚ 224 nm 443 nm 202° / 201° -
O LXGB APT - 0 ft / 0 m 36.15080˚ -5.35977˚ 21 nm 464 nm 173° / 173° -

Altitude Profile

Advertisement - Login to hide

Weather


0- 5 10 15 20 25 30 35+ Temperature / ° C

Clouds and Precipitation
Forecast for 2017-12-13 18:00 UTC. Updated 2 hours ago

Ground ~20,000 ft ~40,000 ft Winds

LESO

Details ICAO LESO (EAS)
Name San_Sebastian
Region Spain
Timezone Europe/Madrid (UTC+1.0)
Stats Elevation 14 ft / 4 m (AMSL)
Location 43.356520° -1.790611°
Runways 1
Magnetic Variation 0.298° W

METAR

LESO 131900Z 23009KT 9999 SCT040 14/06 Q1017

Decode

TAF

TAF LESO 131700Z 1318/1418 23009KT 9999 BKN040 TX15/1414Z TN10/1406Z PROB30 TEMPO 1318/1321 23015G25KT TEMPO 1318/1418 RA TEMPO 1321/1410 BKN010

Decode

Departure Runways

ID Width Length Bearing (true) Bearing (mag) Surface Threshold Offset Overrun Length
04 148 ft / 45 m 5,762 ft / 1,756 m 38.68° 38.98° Asphalt 0 ft / 0 m 0 ft / 0 m
22 148 ft / 45 m 5,762 ft / 1,756 m 218.69° 218.99° Asphalt 0 ft / 0 m 0 ft / 0 m

LXGB

Details ICAO LXGB (GIB)
Name Gibraltar
Region Gibralter
Timezone Europe/Gibraltar (UTC+1.0)
Stats Elevation 15 ft / 5 m (AMSL)
Location 36.151209° -5.349664°
Runways 1
Magnetic Variation 1.123° W

METAR

LXGB 131850Z AUTO 06006KT 9999 // NCD 14/09 Q1027

Decode

TAF

Not found

Destination Runways

ID Width Length Bearing (true) Bearing (mag) Surface Threshold Offset Overrun Length
27 151 ft / 46 m 5,992 ft / 1,826 m 267.56° 268.68° Asphalt 367 ft / 112 m 89 ft / 27 m
9 151 ft / 46 m 5,992 ft / 1,826 m 87.54° 88.66° Asphalt 299 ft / 91 m 52 ft / 16 m

Popular Alternatives